Yakima, WA

5:39 AM PDT on September 30, 2014 (GMT -0700)
Terraced Estates | Change Station
CLOSE
Current Station
Personal Weather Station
Location: Terrace Heights, WA
Elevation: 1302 ft
Nearby Weather Stations
Active Advisory: Special Statement

Elev 1302 ft 46.61 °N, 120.43 °W | Updated 12 minutes ago

Clear
Clear
50.7 °F
Feels Like 50.7 °F
N
0.0
Wind Variable Wind from NE
Gusts 4.0 mph

Today
High -- | Low -- °F
--% Chance of Precip.
Yesterday
High -- | Low -- °F
Precip. -- in
6:59 AM 6:43 PM
Waxing Crescent, 36% visible
Pressure 29.92 in
Visibility 10.0 miles
Clouds Clear
Dew Point 40 °F
Humidity 68%
Rainfall 0.00 in
Snow Depth 0 in , 0 in , 0 in
UV 0 out of 12
Pollen 2.40 out of 12
Air Quality Not available.
Flu Activity Not available.
METAR K1YT 301156Z AUTO 36004KT 10SM CLR 12/04 A2992 RMK AO2 SLPNO T01210042 10146 20081

More Conditions Fewer Conditions

Pressure 29.92 in
Visibility 10.0 miles
Clouds Clear
Dew Point 40 °F
Humidity 68%
Rainfall 0.00 in
Snow Depth 0 in , 0 in , 0 in
UV 0 out of 12
Pollen 2.40 out of 12
Air Quality Not available.
Flu Activity Not available.
METAR K1YT 301156Z AUTO 36004KT 10SM CLR 12/04 A2992 RMK AO2 SLPNO T01210042 10146 20081

More Conditions Fewer Conditions

10-Day Weather Forecast

Almanac

Astronomy

Sep. 30, 2014 Rise Set
Actual Time 6:59 AM PDT 6:43 PM PDT
Civil Twilight 6:29 AM PDT 7:13 PM PDT
Nautical Twilight 5:53 AM PDT 7:48 PM PDT
Astronomical Twilight 5:18 AM PDT 8:24 PM PDT
Moon 1:28 PM PDT 11:02 PM PDT
Length of Visible Light 12h 44m
Length of Day
11h 44m
Tomorrow will be 3m 18s shorter.
Waxing Crescent, 36% of the Moon is Illuminated
Today
Waxing Crescent
Oct 1
First Quarter
Oct 8
Full
Oct 15
Last Quarter
Oct 23
New

Today's Extremes

State Highs State Lows

Community

WunderPhotos

Upload Photos

1,757,623 photos uploaded!

Nearby

Snow Depth

Station Depth Elevation
Spencer Meadow 0 in 3400 ft
Waterhole 0 in 5000 ft
Harts Pass 0 in 6500 ft
Sheep Canyon 0 in 4030 ft
Moses Mountain 1 in 5300 ft

Earthquake Activity

City Distance Mag. Time & Date
No recent earthquake activity has been reported nearby.
Minimum magnitude displayed is 2.5.

Coastal Water Temperatures

Place Temperature
No Stations Reporting

Nearby Weather Stations